createdAt,value
2017-09-28T00:00:16.681Z,28.00
2017-09-28T00:02:19.334Z,27.20
2017-09-28T00:04:22.001Z,28.33
2017-09-28T00:06:24.692Z,28.40
2017-09-28T00:08:27.520Z,28.50
2017-09-28T00:10:30.184Z,28.60
2017-09-28T00:12:32.886Z,29.13
2017-09-28T00:14:36.327Z,27.90
2017-09-28T00:16:39.011Z,27.60
2017-09-28T00:18:41.709Z,27.10
2017-09-28T00:20:44.482Z,28.83
2017-09-28T00:22:47.122Z,27.17
2017-09-28T00:24:49.887Z,27.07
2017-09-28T00:26:52.532Z,27.60
2017-09-28T00:28:55.985Z,28.40
2017-09-28T00:30:59.091Z,28.90
2017-09-28T00:33:01.869Z,28.50
2017-09-28T00:35:04.633Z,30.13
2017-09-28T00:37:07.324Z,31.30
2017-09-28T00:39:10.225Z,31.50
2017-09-28T00:41:13.817Z,31.67
2017-09-28T00:43:16.531Z,31.13
2017-09-28T00:45:19.474Z,31.20
2017-09-28T00:47:22.160Z,31.43
2017-09-28T00:49:25.084Z,32.13
2017-09-28T00:51:27.835Z,30.17
2017-09-28T00:53:31.389Z,29.70
2017-09-28T00:55:34.093Z,31.10
2017-09-28T00:57:37.581Z,32.07
2017-09-28T00:59:40.449Z,30.47
2017-09-28T01:01:43.151Z,30.60
2017-09-28T01:03:46.624Z,31.40
2017-09-28T01:05:49.328Z,31.10
2017-09-28T01:07:52.808Z,32.53
2017-09-28T01:09:56.352Z,31.77
2017-09-28T01:11:59.074Z,33.17
2017-09-28T01:14:01.843Z,30.50
2017-09-28T01:16:04.538Z,31.17
2017-09-28T01:18:08.743Z,32.37
2017-09-28T01:20:11.748Z,31.60
2017-09-28T01:22:15.225Z,30.47
2017-09-28T01:24:19.447Z,30.80
2017-09-28T01:26:22.973Z,31.53
2017-09-28T01:28:25.863Z,31.30
2017-09-28T01:30:28.562Z,31.43
2017-09-28T01:32:31.262Z,31.57
2017-09-28T01:34:34.003Z,30.43
2017-09-28T01:36:36.688Z,30.97
2017-09-28T01:38:39.573Z,31.77
2017-09-28T01:40:42.298Z,30.97
2017-09-28T01:42:45.733Z,30.97
2017-09-28T01:44:48.432Z,30.43
2017-09-28T01:46:51.168Z,30.80
2017-09-28T01:48:54.191Z,30.40
2017-09-28T01:50:56.937Z,32.70
2017-09-28T01:52:59.648Z,31.07
2017-09-28T01:55:02.332Z,30.53
2017-09-28T01:57:05.014Z,31.13
2017-09-28T01:59:07.733Z,30.70
2017-09-28T02:01:10.571Z,29.73
2017-09-28T02:03:13.253Z,30.77
2017-09-28T02:05:16.091Z,28.80
2017-09-28T02:07:18.784Z,28.73
2017-09-28T02:09:21.684Z,28.67
2017-09-28T02:11:24.409Z,29.40
2017-09-28T02:13:27.089Z,30.73
2017-09-28T02:15:29.766Z,29.70
2017-09-28T02:17:33.991Z,30.93
2017-09-28T02:19:36.675Z,30.70
2017-09-28T02:21:39.607Z,30.40
2017-09-28T02:23:43.030Z,28.93
2017-09-28T02:25:45.765Z,29.30
2017-09-28T02:27:48.464Z,31.33
2017-09-28T02:29:51.994Z,33.37
2017-09-28T02:31:54.661Z,30.67
2017-09-28T02:33:57.380Z,31.40
2017-09-28T02:36:00.107Z,29.80
2017-09-28T02:38:02.766Z,32.00
2017-09-28T02:40:06.380Z,30.20
2017-09-28T02:42:09.023Z,31.00
2017-09-28T02:44:12.454Z,30.93
2017-09-28T02:46:15.467Z,29.80
2017-09-28T02:48:18.226Z,29.87
2017-09-28T02:50:21.096Z,30.13
2017-09-28T02:52:23.837Z,28.70
2017-09-28T02:54:26.482Z,30.17
2017-09-28T02:56:29.228Z,30.87
2017-09-28T02:58:31.916Z,29.47
2017-09-28T03:00:34.590Z,29.13
2017-09-28T03:02:37.353Z,30.03
2017-09-28T03:04:40.801Z,29.23
2017-09-28T03:06:43.440Z,29.80
2017-09-28T03:08:46.084Z,32.00
2017-09-28T03:10:49.533Z,30.97
2017-09-28T03:12:52.355Z,30.57
2017-09-28T03:14:55.099Z,30.60
2017-09-28T03:16:57.937Z,30.90
2017-09-28T03:19:00.616Z,30.60
2017-09-28T03:21:03.401Z,31.63
2017-09-28T03:23:06.200Z,31.07
2017-09-28T03:25:09.866Z,33.93
2017-09-28T03:27:12.551Z,32.00
2017-09-28T03:29:16.859Z,32.13
2017-09-28T03:31:19.799Z,31.00
2017-09-28T03:33:22.713Z,31.97
2017-09-28T03:35:26.849Z,30.90
2017-09-28T03:37:29.721Z,30.03
2017-09-28T03:39:32.412Z,30.90
2017-09-28T03:41:35.347Z,32.70
2017-09-28T03:43:38.905Z,32.17
2017-09-28T03:45:41.689Z,32.40
2017-09-28T03:47:44.374Z,33.47
2017-09-28T03:49:47.797Z,32.13
2017-09-28T03:51:51.479Z,31.83
2017-09-28T03:53:54.916Z,31.17
2017-09-28T03:55:57.611Z,33.20
2017-09-28T03:58:00.351Z,31.33
2017-09-28T04:00:03.879Z,32.20
2017-09-28T04:02:06.625Z,30.90
2017-09-28T04:04:09.359Z,30.60
2017-09-28T04:06:12.228Z,31.20
2017-09-28T04:08:14.877Z,33.33
2017-09-28T04:10:17.584Z,32.03
2017-09-28T04:12:20.280Z,31.90
2017-09-28T04:14:22.964Z,31.60
2017-09-28T04:16:25.686Z,33.07
2017-09-28T04:18:28.464Z,30.53
2017-09-28T04:20:31.143Z,30.53
2017-09-28T04:22:33.914Z,32.10
2017-09-28T04:24:36.653Z,30.93
2017-09-28T04:26:39.469Z,33.40
2017-09-28T04:28:42.205Z,30.80
2017-09-28T04:30:44.955Z,31.00
2017-09-28T04:32:47.713Z,31.70
2017-09-28T04:34:50.510Z,32.50
2017-09-28T04:36:53.173Z,31.03
2017-09-28T04:38:55.870Z,32.27
2017-09-28T04:40:58.532Z,33.30
2017-09-28T04:43:01.229Z,32.70
2017-09-28T04:45:04.149Z,33.00
2017-09-28T04:47:06.839Z,32.53
2017-09-28T04:49:10.277Z,34.87
2017-09-28T04:51:13.756Z,35.83
2017-09-28T04:53:16.430Z,34.33
2017-09-28T04:55:19.204Z,33.87
2017-09-28T04:57:21.899Z,33.27
2017-09-28T04:59:24.550Z,35.20
2017-09-28T05:01:27.295Z,34.00
2017-09-28T05:03:29.991Z,35.00
2017-09-28T05:05:32.714Z,34.90
2017-09-28T05:07:35.377Z,34.87
2017-09-28T05:09:38.049Z,34.67
2017-09-28T05:11:40.847Z,34.87
2017-09-28T05:13:43.507Z,36.10
2017-09-28T05:15:46.256Z,36.13
2017-09-28T05:17:48.930Z,34.40
2017-09-28T05:19:51.653Z,35.33
2017-09-28T05:21:54.382Z,35.17
2017-09-28T05:23:57.101Z,34.37
2017-09-28T05:25:59.784Z,35.70
2017-09-28T05:28:03.558Z,36.40
2017-09-28T05:30:06.201Z,35.90
2017-09-28T05:32:09.804Z,35.03
2017-09-28T05:34:13.225Z,37.00
2017-09-28T05:36:16.015Z,35.03
2017-09-28T05:38:18.878Z,34.00
2017-09-28T05:40:21.552Z,34.57
2017-09-28T05:42:24.523Z,34.20
2017-09-28T05:44:27.961Z,33.30
2017-09-28T05:46:30.640Z,34.07
2017-09-28T05:48:34.142Z,35.00
2017-09-28T05:50:36.880Z,35.83
2017-09-28T05:52:39.665Z,36.30
2017-09-28T05:54:42.359Z,34.10
2017-09-28T05:56:45.061Z,33.03
2017-09-28T05:58:47.821Z,35.60
2017-09-28T06:00:50.572Z,34.77
2017-09-28T06:02:53.558Z,34.33
2017-09-28T06:04:56.225Z,33.93
2017-09-28T06:06:58.940Z,34.83
2017-09-28T06:09:01.790Z,33.67
2017-09-28T06:11:04.512Z,33.63
2017-09-28T06:13:07.189Z,34.10
2017-09-28T06:15:09.901Z,33.47
2017-09-28T06:17:13.332Z,31.97
2017-09-28T06:19:16.033Z,33.23
2017-09-28T06:21:18.797Z,35.97
2017-09-28T06:23:21.454Z,35.50
2017-09-28T06:25:24.248Z,36.37
2017-09-28T06:27:27.004Z,34.03
2017-09-28T06:29:29.773Z,35.93
2017-09-28T06:31:32.458Z,36.57
2017-09-28T06:33:35.118Z,36.33
2017-09-28T06:35:37.880Z,38.17
2017-09-28T06:37:41.325Z,40.53
2017-09-28T06:39:44.039Z,36.83
2017-09-28T06:41:46.809Z,39.10
2017-09-28T06:43:49.540Z,41.20
2017-09-28T06:45:52.317Z,38.63
2017-09-28T06:47:54.969Z,38.57
2017-09-28T06:49:58.423Z,42.10
2017-09-28T06:52:01.136Z,44.30
2017-09-28T06:54:03.797Z,44.07
2017-09-28T06:56:07.294Z,44.43
2017-09-28T06:58:09.937Z,43.50
2017-09-28T07:00:12.753Z,44.67
2017-09-28T07:02:16.314Z,43.50
2017-09-28T07:04:18.976Z,43.60
2017-09-28T07:06:21.643Z,43.70
2017-09-28T07:08:24.339Z,43.63
2017-09-28T07:10:26.976Z,44.93
2017-09-28T07:12:29.674Z,46.20
2017-09-28T07:14:32.352Z,53.03
2017-09-28T07:16:34.999Z,56.00
2017-09-28T07:18:38.462Z,51.33
2017-09-28T07:20:41.134Z,45.80
2017-09-28T07:22:43.833Z,41.90
2017-09-28T07:24:47.277Z,41.10
2017-09-28T07:26:49.948Z,49.23
2017-09-28T07:28:52.708Z,53.37
2017-09-28T07:30:55.434Z,55.30
2017-09-28T07:32:58.148Z,53.20
2017-09-28T07:35:01.649Z,46.70
2017-09-28T07:37:04.324Z,47.80
2017-09-28T07:39:06.985Z,41.63
2017-09-28T07:41:10.412Z,42.50
2017-09-28T07:43:13.108Z,39.83
2017-09-28T07:45:15.861Z,40.03
2017-09-28T07:47:18.509Z,41.70
2017-09-28T07:49:22.039Z,41.20
2017-09-28T07:51:24.684Z,42.13
2017-09-28T07:53:28.092Z,40.53
2017-09-28T07:55:31.545Z,43.47
2017-09-28T07:57:34.227Z,39.97
2017-09-28T07:59:36.880Z,46.87
2017-09-28T08:01:39.559Z,45.17
2017-09-28T08:03:42.241Z,41.80
2017-09-28T08:05:45.014Z,43.63
2017-09-28T08:07:47.681Z,42.00
2017-09-28T08:09:50.388Z,43.67
2017-09-28T08:11:53.110Z,42.00
2017-09-28T08:13:55.891Z,42.43
2017-09-28T08:15:58.687Z,45.03
2017-09-28T08:18:01.357Z,43.63
2017-09-28T08:20:04.124Z,42.97
2017-09-28T08:22:06.900Z,42.30
2017-09-28T08:24:09.544Z,42.87
2017-09-28T08:26:13.109Z,43.50
2017-09-28T08:28:15.819Z,43.90
2017-09-28T08:30:19.296Z,45.20
2017-09-28T08:32:23.465Z,45.37
2017-09-28T08:34:26.650Z,43.40
2017-09-28T08:36:29.365Z,44.33
2017-09-28T08:38:32.033Z,42.30
2017-09-28T08:40:35.029Z,42.17
2017-09-28T08:42:38.434Z,40.67
2017-09-28T08:44:41.167Z,39.37
2017-09-28T08:46:43.847Z,36.30
2017-09-28T08:48:46.606Z,39.90
2017-09-28T08:50:49.319Z,38.43
2017-09-28T08:52:52.165Z,38.33
2017-09-28T08:54:54.943Z,35.30
2017-09-28T08:56:57.628Z,36.10
2017-09-28T08:59:00.325Z,35.90
2017-09-28T09:01:03.468Z,33.10
2017-09-28T09:03:06.121Z,35.40
2017-09-28T09:05:09.573Z,33.17
2017-09-28T09:07:12.371Z,36.13
2017-09-28T09:09:15.025Z,33.33
2017-09-28T09:11:17.904Z,30.80
2017-09-28T09:13:20.564Z,31.73
2017-09-28T09:15:23.254Z,33.37
2017-09-28T09:17:25.900Z,31.80
2017-09-28T09:19:28.590Z,31.83
2017-09-28T09:21:31.279Z,30.37
2017-09-28T09:23:34.053Z,33.00
2017-09-28T09:25:36.717Z,28.77
2017-09-28T09:27:39.445Z,28.63
2017-09-28T09:29:42.138Z,29.90
2017-09-28T09:31:45.596Z,30.33
2017-09-28T09:33:48.544Z,29.33
2017-09-28T09:35:51.237Z,29.80
2017-09-28T09:37:54.037Z,26.97
2017-09-28T09:39:56.705Z,27.73
2017-09-28T09:41:59.466Z,27.43
2017-09-28T09:44:02.342Z,26.80
2017-09-28T09:46:05.003Z,27.10
2017-09-28T09:48:07.690Z,30.90
2017-09-28T09:50:10.384Z,29.60
2017-09-28T09:52:13.043Z,30.37
2017-09-28T09:54:15.712Z,29.63
2017-09-28T09:56:18.415Z,32.03
2017-09-28T09:58:21.065Z,32.00
2017-09-28T10:00:23.854Z,30.10
2017-09-28T10:02:26.622Z,30.10
2017-09-28T10:04:29.792Z,30.90
2017-09-28T10:06:35.961Z,31.27
2017-09-28T10:08:42.296Z,31.90
2017-09-28T10:10:46.793Z,32.13
2017-09-28T10:12:52.878Z,32.60
2017-09-28T10:15:10.956Z,32.60
2017-09-28T10:17:13.839Z,34.60
2017-09-28T10:19:16.621Z,34.37
2017-09-28T10:21:19.293Z,35.73
2017-09-28T10:23:21.942Z,34.83
2017-09-28T10:25:25.751Z,35.50
2017-09-28T10:27:28.401Z,34.10
2017-09-28T10:29:31.322Z,37.20
2017-09-28T10:31:34.007Z,36.40
2017-09-28T10:33:36.652Z,37.37
2017-09-28T10:35:40.272Z,37.90
2017-09-28T10:37:42.949Z,38.10
2017-09-28T10:39:45.703Z,36.53
2017-09-28T10:41:49.109Z,37.20
2017-09-28T10:43:51.789Z,38.80
2017-09-28T10:45:54.526Z,39.50
2017-09-28T10:47:57.173Z,38.70
2017-09-28T10:50:00.095Z,36.40
2017-09-28T10:52:03.527Z,35.07
2017-09-28T10:54:06.213Z,34.33
2017-09-28T10:56:09.151Z,34.70
2017-09-28T10:58:12.830Z,35.30
2017-09-28T11:00:15.643Z,33.23
2017-09-28T11:02:19.095Z,33.23
2017-09-28T11:04:21.855Z,35.97
2017-09-28T11:06:24.667Z,33.67
2017-09-28T11:08:27.362Z,34.90
2017-09-28T11:10:30.934Z,38.87
2017-09-28T11:12:33.612Z,40.53
2017-09-28T11:14:36.369Z,35.57
2017-09-28T11:16:39.131Z,39.77
2017-09-28T11:18:41.776Z,41.87
2017-09-28T11:20:45.230Z,37.50
2017-09-28T11:22:47.974Z,33.67
2017-09-28T11:24:50.662Z,36.67
2017-09-28T11:26:53.417Z,38.07
2017-09-28T11:28:56.093Z,32.03
2017-09-28T11:30:58.864Z,31.20
2017-09-28T11:33:01.590Z,31.90
2017-09-28T11:35:04.236Z,32.43
2017-09-28T11:37:07.111Z,32.77
2017-09-28T11:39:09.793Z,33.77
2017-09-28T11:41:12.466Z,31.20
2017-09-28T11:43:15.200Z,31.93
2017-09-28T11:45:17.848Z,31.17
2017-09-28T11:47:20.611Z,29.73
2017-09-28T11:49:23.532Z,28.80
2017-09-28T11:51:27.703Z,25.70
2017-09-28T11:53:30.507Z,26.30
2017-09-28T11:55:33.177Z,26.93
2017-09-28T11:57:36.098Z,25.97
2017-09-28T11:59:39.520Z,24.10
2017-09-28T12:01:42.207Z,23.53
2017-09-28T12:03:45.009Z,22.93
2017-09-28T12:05:47.753Z,24.10
2017-09-28T12:07:50.598Z,24.80
2017-09-28T12:09:54.463Z,23.00
2017-09-28T12:11:57.116Z,22.83
2017-09-28T12:13:59.805Z,21.87
2017-09-28T12:16:02.568Z,20.50
2017-09-28T12:18:05.241Z,20.90
2017-09-28T12:20:07.932Z,19.27
2017-09-28T12:22:10.619Z,18.60
2017-09-28T12:24:13.318Z,19.00
2017-09-28T12:26:15.992Z,19.80
2017-09-28T12:28:18.727Z,18.87
2017-09-28T12:30:21.441Z,19.40
2017-09-28T12:32:24.140Z,17.67
2017-09-28T12:34:26.795Z,18.23
2017-09-28T12:36:29.650Z,18.60
2017-09-28T12:38:32.323Z,17.30
2017-09-28T12:40:35.502Z,17.23
2017-09-28T12:42:38.138Z,17.30
2017-09-28T12:44:41.670Z,17.90
2017-09-28T12:46:44.334Z,17.07
2017-09-28T12:48:47.022Z,17.40
2017-09-28T12:50:50.869Z,16.27
2017-09-28T12:52:53.553Z,16.70
2017-09-28T12:54:56.352Z,15.53
2017-09-28T12:56:59.824Z,16.70
2017-09-28T12:59:02.488Z,15.10
2017-09-28T13:01:05.438Z,16.47
2017-09-28T13:03:08.213Z,17.70
2017-09-28T13:05:10.887Z,16.23
2017-09-28T13:07:13.549Z,14.87
2017-09-28T13:09:16.235Z,14.27
2017-09-28T13:11:18.900Z,15.00
2017-09-28T13:13:22.655Z,14.27
2017-09-28T13:15:25.309Z,13.93
2017-09-28T13:17:28.074Z,15.07
2017-09-28T13:19:30.780Z,15.20
2017-09-28T13:21:33.602Z,12.53
2017-09-28T13:23:36.329Z,13.33
2017-09-28T13:25:39.015Z,14.73
2017-09-28T13:27:41.797Z,15.53
2017-09-28T13:29:44.462Z,15.10
2017-09-28T13:31:47.223Z,15.37
2017-09-28T13:33:49.870Z,16.07
2017-09-28T13:35:52.538Z,14.90
2017-09-28T13:37:56.097Z,15.33
2017-09-28T13:39:58.807Z,16.20
2017-09-28T13:42:02.326Z,16.00
2017-09-28T13:44:05.015Z,16.53
2017-09-28T13:46:07.684Z,16.67
2017-09-28T13:48:10.396Z,16.67
2017-09-28T13:50:13.053Z,16.43
2017-09-28T13:52:15.749Z,17.00
2017-09-28T13:54:18.470Z,15.27
2017-09-28T13:56:21.903Z,17.53
2017-09-28T13:58:24.602Z,16.87
2017-09-28T14:00:27.268Z,16.97
2017-09-28T14:02:29.939Z,16.93
2017-09-28T14:04:32.626Z,17.17
2017-09-28T14:06:36.088Z,15.50
2017-09-28T14:08:38.753Z,15.63
2017-09-28T14:10:41.434Z,14.90
2017-09-28T14:12:44.119Z,14.93
2017-09-28T14:14:47.006Z,14.27
2017-09-28T14:16:50.749Z,13.80
2017-09-28T14:18:53.461Z,13.70
2017-09-28T14:20:56.143Z,11.47
2017-09-28T14:22:58.819Z,10.80
2017-09-28T14:25:01.542Z,10.80
2017-09-28T14:27:04.259Z,10.00
2017-09-28T14:29:07.723Z,11.10
2017-09-28T14:31:10.456Z,10.63
2017-09-28T14:33:13.115Z,10.03
2017-09-28T14:35:15.851Z,9.53
2017-09-28T14:37:18.613Z,11.50
2017-09-28T14:39:21.269Z,10.73
2017-09-28T14:41:24.049Z,11.47
2017-09-28T14:43:26.691Z,12.00
2017-09-28T14:45:30.443Z,12.80
2017-09-28T14:47:33.198Z,13.33
2017-09-28T14:49:36.083Z,13.07
2017-09-28T14:51:38.815Z,13.97
2017-09-28T14:53:41.636Z,14.57
2017-09-28T14:55:44.369Z,14.93
2017-09-28T14:57:47.034Z,14.63
2017-09-28T14:59:49.710Z,14.10
2017-09-28T15:01:52.433Z,15.20
2017-09-28T15:03:55.086Z,14.47
2017-09-28T15:05:58.567Z,12.80
2017-09-28T15:08:01.282Z,12.60
2017-09-28T15:10:03.948Z,13.53
2017-09-28T15:12:06.650Z,13.23
2017-09-28T15:14:10.143Z,13.57
2017-09-28T15:16:12.793Z,12.93
2017-09-28T15:18:15.695Z,13.03
2017-09-28T15:20:18.374Z,12.33
2017-09-28T15:22:21.225Z,12.60
2017-09-28T15:24:24.694Z,12.40
2017-09-28T15:26:27.546Z,11.60
2017-09-28T15:28:31.141Z,13.17
2017-09-28T15:30:33.927Z,12.30
2017-09-28T15:32:37.412Z,12.13
2017-09-28T15:34:40.089Z,11.60
2017-09-28T15:36:42.824Z,12.27
2017-09-28T15:38:46.457Z,10.70
2017-09-28T15:40:49.233Z,11.63
2017-09-28T15:42:53.059Z,12.87
2017-09-28T15:44:55.750Z,12.50
2017-09-28T15:46:58.552Z,13.00
2017-09-28T15:49:01.373Z,13.23
2017-09-28T15:51:04.050Z,13.10
2017-09-28T15:53:06.763Z,12.90
2017-09-28T15:55:09.433Z,12.80
2017-09-28T15:57:12.133Z,14.00
2017-09-28T15:59:15.599Z,13.40
2017-09-28T16:01:18.283Z,13.23
2017-09-28T16:03:21.002Z,14.30
2017-09-28T16:05:24.464Z,14.00
2017-09-28T16:07:27.330Z,13.50
2017-09-28T16:09:30.367Z,13.77
2017-09-28T16:11:33.314Z,14.87
2017-09-28T16:13:36.251Z,14.63
2017-09-28T16:15:38.939Z,14.60
2017-09-28T16:17:41.802Z,15.30
2017-09-28T16:19:44.585Z,15.70
2017-09-28T16:21:47.247Z,16.30
2017-09-28T16:23:49.972Z,16.07
2017-09-28T16:25:52.617Z,17.33
2017-09-28T16:27:55.304Z,16.87
2017-09-28T16:29:58.170Z,16.10
2017-09-28T16:32:01.129Z,18.30
2017-09-28T16:34:03.928Z,18.20
2017-09-28T16:36:07.513Z,19.27
2017-09-28T16:38:10.336Z,17.80
2017-09-28T16:40:13.249Z,19.17
2017-09-28T16:42:15.976Z,21.43
2017-09-28T16:44:18.641Z,21.07
2017-09-28T16:46:21.342Z,21.63
2017-09-28T16:48:24.098Z,19.60
2017-09-28T16:50:26.843Z,19.73
2017-09-28T16:52:30.315Z,22.60
2017-09-28T16:54:33.146Z,21.87
2017-09-28T16:56:35.815Z,23.57
2017-09-28T16:58:38.557Z,21.40
2017-09-28T17:00:41.280Z,22.40
2017-09-28T17:02:44.059Z,21.90
2017-09-28T17:04:46.778Z,21.03
2017-09-28T17:06:50.949Z,22.60
2017-09-28T17:08:53.651Z,20.10
2017-09-28T17:10:56.955Z,21.10
2017-09-28T17:12:59.810Z,23.30
2017-09-28T17:15:02.485Z,23.93
2017-09-28T17:17:05.296Z,23.10
2017-09-28T17:19:07.942Z,21.60
2017-09-28T17:21:10.650Z,21.90
2017-09-28T17:23:14.106Z,18.80
2017-09-28T17:25:16.794Z,18.33
2017-09-28T17:27:19.565Z,17.77
2017-09-28T17:29:22.242Z,19.43
2017-09-28T17:31:24.918Z,20.00
2017-09-28T17:33:27.682Z,20.50
2017-09-28T17:35:31.123Z,19.97
2017-09-28T17:37:34.581Z,21.10
2017-09-28T17:39:40.977Z,20.57
2017-09-28T17:41:43.657Z,18.37
2017-09-28T17:43:46.485Z,18.40
2017-09-28T17:45:51.093Z,18.10
2017-09-28T17:47:54.102Z,17.03
2017-09-28T17:49:56.790Z,15.13
2017-09-28T17:52:00.504Z,16.10
2017-09-28T17:54:03.172Z,16.70
2017-09-28T17:56:05.831Z,14.83
2017-09-28T17:58:08.601Z,15.50
2017-09-28T18:00:11.425Z,14.27
2017-09-28T18:02:15.098Z,12.70
2017-09-28T18:04:18.142Z,12.57
2017-09-28T18:06:20.872Z,6.83
2017-09-28T18:08:23.542Z,5.50
2017-09-28T18:10:26.397Z,5.83
2017-09-28T18:12:29.176Z,4.27
2017-09-28T18:14:31.943Z,4.60
2017-09-28T18:16:35.068Z,4.30
2017-09-28T18:18:39.560Z,4.30
2017-09-28T18:20:42.219Z,5.13
2017-09-28T18:22:44.930Z,4.97
2017-09-28T18:24:47.665Z,4.60
2017-09-28T18:26:51.247Z,4.67
2017-09-28T18:28:55.843Z,4.80
2017-09-28T18:30:58.488Z,5.30
2017-09-28T18:33:01.464Z,5.40
2017-09-28T18:35:04.135Z,5.33
2017-09-28T18:37:06.843Z,6.00
2017-09-28T18:39:09.609Z,5.37
2017-09-28T18:41:12.471Z,5.63
2017-09-28T18:43:15.179Z,5.77
2017-09-28T18:45:17.869Z,5.60
2017-09-28T18:47:20.611Z,5.57
2017-09-28T18:49:23.438Z,5.80
2017-09-28T18:51:26.127Z,6.93
2017-09-28T18:53:28.791Z,5.80
2017-09-28T18:55:31.615Z,5.70
2017-09-28T18:57:34.289Z,5.63
2017-09-28T18:59:36.992Z,5.90
2017-09-28T19:01:39.724Z,6.43
2017-09-28T19:03:43.174Z,6.83
2017-09-28T19:05:45.849Z,8.10
2017-09-28T19:07:48.544Z,7.53
2017-09-28T19:09:52.141Z,7.80
2017-09-28T19:11:55.569Z,7.57
2017-09-28T19:13:59.019Z,7.33
2017-09-28T19:16:01.814Z,8.40
2017-09-28T19:18:04.480Z,8.50
2017-09-28T19:20:07.460Z,7.90
2017-09-28T19:22:10.115Z,8.50
2017-09-28T19:24:12.784Z,6.90
2017-09-28T19:26:15.488Z,8.03
2017-09-28T19:28:18.145Z,8.03
2017-09-28T19:30:20.902Z,8.10
2017-09-28T19:32:23.608Z,6.90
2017-09-28T19:34:26.283Z,7.77
2017-09-28T19:36:29.020Z,8.07
2017-09-28T19:38:31.735Z,7.50
2017-09-28T19:40:34.388Z,7.50
2017-09-28T19:42:37.199Z,7.33
2017-09-28T19:44:39.875Z,7.20
2017-09-28T19:46:42.578Z,8.00
2017-09-28T19:48:46.836Z,6.97
2017-09-28T19:50:49.582Z,8.13
2017-09-28T19:52:53.089Z,7.47
2017-09-28T19:54:55.757Z,7.57
2017-09-28T19:56:59.209Z,7.70
2017-09-28T19:59:01.912Z,7.43
2017-09-28T20:01:04.673Z,7.90
2017-09-28T20:03:07.427Z,8.23
2017-09-28T20:05:10.091Z,8.80
2017-09-28T20:07:12.866Z,8.60
2017-09-28T20:09:15.642Z,7.77
2017-09-28T20:11:18.441Z,8.63
2017-09-28T20:13:21.239Z,8.90
2017-09-28T20:15:24.021Z,8.10
2017-09-28T20:17:26.933Z,8.30
2017-09-28T20:19:30.438Z,7.33
2017-09-28T20:21:33.233Z,7.63
2017-09-28T20:23:36.769Z,8.80
2017-09-28T20:25:39.454Z,9.00
2017-09-28T20:27:42.272Z,8.73
2017-09-28T20:29:44.913Z,9.73
2017-09-28T20:31:48.418Z,9.43
2017-09-28T20:33:51.297Z,8.90
2017-09-28T20:35:53.954Z,9.70
2017-09-28T20:37:56.696Z,10.10
2017-09-28T20:39:59.408Z,10.70
2017-09-28T20:42:02.167Z,11.43
2017-09-28T20:44:05.116Z,10.87
2017-09-28T20:46:07.910Z,10.93
2017-09-28T20:48:10.694Z,10.70
2017-09-28T20:50:13.428Z,11.20
2017-09-28T20:52:16.244Z,9.53
2017-09-28T20:54:20.047Z,10.47
2017-09-28T20:56:22.747Z,10.27
2017-09-28T20:58:25.448Z,8.80
2017-09-28T21:00:28.899Z,8.13
2017-09-28T21:02:31.626Z,9.00
2017-09-28T21:04:36.009Z,7.93
2017-09-28T21:06:38.671Z,6.70
2017-09-28T21:08:41.441Z,7.10
2017-09-28T21:10:44.217Z,6.87
2017-09-28T21:12:46.946Z,6.47
2017-09-28T21:14:50.499Z,6.47
2017-09-28T21:16:53.155Z,5.80
2017-09-28T21:18:55.973Z,5.83
2017-09-28T21:20:58.651Z,5.70
2017-09-28T21:23:01.491Z,5.20
2017-09-28T21:25:04.200Z,4.30
2017-09-28T21:27:06.861Z,3.00
2017-09-28T21:29:09.576Z,3.80
2017-09-28T21:31:12.274Z,3.80
2017-09-28T21:33:14.917Z,3.40
2017-09-28T21:35:17.587Z,3.50
2017-09-28T21:37:21.023Z,3.50
2017-09-28T21:39:24.572Z,3.97
2017-09-28T21:41:27.251Z,3.50
2017-09-28T21:43:29.953Z,4.80
2017-09-28T21:45:32.655Z,7.27
2017-09-28T21:47:36.093Z,9.20
2017-09-28T21:49:38.796Z,8.60
2017-09-28T21:51:41.445Z,7.17
2017-09-28T21:53:44.410Z,7.27
2017-09-28T21:55:47.086Z,7.97
2017-09-28T21:57:49.735Z,9.67
2017-09-28T21:59:53.372Z,8.00
2017-09-28T22:01:56.145Z,10.47
2017-09-28T22:03:58.888Z,10.07
2017-09-28T22:06:02.435Z,7.73
2017-09-28T22:08:05.083Z,8.10
2017-09-28T22:10:07.959Z,7.50
2017-09-28T22:12:10.638Z,6.73
2017-09-28T22:14:13.304Z,6.30
2017-09-28T22:16:16.858Z,6.80
2017-09-28T22:18:19.515Z,6.07
2017-09-28T22:20:22.261Z,6.27
2017-09-28T22:22:25.161Z,6.77
2017-09-28T22:24:27.835Z,5.80
2017-09-28T22:26:30.922Z,5.60
2017-09-28T22:28:33.699Z,6.63
2017-09-28T22:30:36.474Z,6.53
2017-09-28T22:32:39.219Z,5.67
2017-09-28T22:34:42.789Z,6.20
2017-09-28T22:36:45.479Z,6.83
2017-09-28T22:38:48.943Z,7.60
2017-09-28T22:40:51.729Z,7.73
2017-09-28T22:42:54.387Z,7.80
2017-09-28T22:44:57.050Z,7.70
2017-09-28T22:46:59.818Z,8.37
2017-09-28T22:49:02.469Z,11.00
2017-09-28T22:51:05.216Z,11.40
2017-09-28T22:53:07.871Z,11.00
2017-09-28T22:55:10.527Z,11.17
2017-09-28T22:57:13.325Z,10.63
2017-09-28T22:59:16.095Z,10.73
2017-09-28T23:01:18.768Z,12.63
2017-09-28T23:03:21.749Z,10.77
2017-09-28T23:05:24.401Z,12.33
2017-09-28T23:07:27.838Z,11.23
2017-09-28T23:09:31.026Z,11.73
2017-09-28T23:11:33.686Z,12.33
2017-09-28T23:13:36.452Z,12.80
2017-09-28T23:15:39.177Z,12.77
2017-09-28T23:17:41.876Z,12.90
2017-09-28T23:19:45.428Z,12.00
2017-09-28T23:21:48.110Z,13.43
2017-09-28T23:23:50.802Z,13.17
2017-09-28T23:25:53.485Z,12.83
2017-09-28T23:27:56.162Z,14.07
2017-09-28T23:29:58.927Z,14.27
2017-09-28T23:32:01.619Z,13.57
2017-09-28T23:34:04.273Z,14.10
2017-09-28T23:36:06.987Z,14.60
2017-09-28T23:38:09.674Z,15.07
2017-09-28T23:40:13.302Z,13.63
2017-09-28T23:42:15.945Z,14.30
2017-09-28T23:44:19.464Z,14.37
2017-09-28T23:46:22.128Z,14.50
2017-09-28T23:48:25.543Z,14.60
2017-09-28T23:50:28.331Z,14.57
2017-09-28T23:52:31.006Z,14.30
2017-09-28T23:54:33.663Z,13.80
2017-09-28T23:56:36.434Z,14.60
2017-09-28T23:58:39.913Z,12.47
